sensor_id;sensor_type;location;lat;lon;timestamp;P1;durP1;ratioP1;P2;durP2;ratioP2
71734;SDS011;59577;52.122;5.406;2023-09-12T00:02:12;24.10;;;15.10;;
71734;SDS011;59577;52.122;5.406;2023-09-12T00:04:38;25.00;;;15.68;;
71734;SDS011;59577;52.122;5.406;2023-09-12T00:07:05;26.58;;;15.88;;
71734;SDS011;59577;52.122;5.406;2023-09-12T00:09:31;28.15;;;16.55;;
71734;SDS011;59577;52.122;5.406;2023-09-12T00:11:58;24.13;;;14.40;;
71734;SDS011;59577;52.122;5.406;2023-09-12T00:14:26;25.55;;;14.65;;
71734;SDS011;59577;52.122;5.406;2023-09-12T00:16:53;28.75;;;16.67;;
71734;SDS011;59577;52.122;5.406;2023-09-12T00:19:21;24.02;;;15.00;;
71734;SDS011;59577;52.122;5.406;2023-09-12T00:21:48;19.88;;;12.45;;
71734;SDS011;59577;52.122;5.406;2023-09-12T00:24:15;22.83;;;13.43;;
71734;SDS011;59577;52.122;5.406;2023-09-12T00:26:41;23.55;;;12.73;;
71734;SDS011;59577;52.122;5.406;2023-09-12T00:29:08;21.52;;;13.13;;
71734;SDS011;59577;52.122;5.406;2023-09-12T00:31:34;21.38;;;13.02;;
71734;SDS011;59577;52.122;5.406;2023-09-12T00:34:01;20.48;;;12.95;;
71734;SDS011;59577;52.122;5.406;2023-09-12T00:36:28;20.83;;;11.87;;
71734;SDS011;59577;52.122;5.406;2023-09-12T00:38:54;22.98;;;13.90;;
71734;SDS011;59577;52.122;5.406;2023-09-12T00:41:21;19.88;;;13.00;;
71734;SDS011;59577;52.122;5.406;2023-09-12T00:43:47;19.42;;;12.05;;
71734;SDS011;59577;52.122;5.406;2023-09-12T00:46:14;25.75;;;13.75;;
71734;SDS011;59577;52.122;5.406;2023-09-12T00:48:45;19.20;;;12.80;;
71734;SDS011;59577;52.122;5.406;2023-09-12T00:51:14;21.50;;;13.77;;
71734;SDS011;59577;52.122;5.406;2023-09-12T00:53:42;21.65;;;13.25;;
71734;SDS011;59577;52.122;5.406;2023-09-12T00:56:09;19.58;;;13.15;;
71734;SDS011;59577;52.122;5.406;2023-09-12T00:58:36;21.20;;;12.32;;
71734;SDS011;59577;52.122;5.406;2023-09-12T01:01:03;20.83;;;13.27;;
71734;SDS011;59577;52.122;5.406;2023-09-12T01:03:30;20.75;;;13.48;;
71734;SDS011;59577;52.122;5.406;2023-09-12T01:05:58;18.00;;;12.13;;
71734;SDS011;59577;52.122;5.406;2023-09-12T01:08:26;19.10;;;12.30;;
71734;SDS011;59577;52.122;5.406;2023-09-12T01:10:52;19.63;;;12.38;;
71734;SDS011;59577;52.122;5.406;2023-09-12T01:13:21;20.23;;;13.03;;
71734;SDS011;59577;52.122;5.406;2023-09-12T01:15:49;22.27;;;12.88;;
71734;SDS011;59577;52.122;5.406;2023-09-12T01:18:15;17.45;;;12.18;;
71734;SDS011;59577;52.122;5.406;2023-09-12T01:20:50;18.55;;;12.60;;
71734;SDS011;59577;52.122;5.406;2023-09-12T01:29:26;19.80;;;12.35;;
71734;SDS011;59577;52.122;5.406;2023-09-12T01:31:53;16.30;;;11.30;;
71734;SDS011;59577;52.122;5.406;2023-09-12T01:34:20;17.92;;;12.45;;
71734;SDS011;59577;52.122;5.406;2023-09-12T01:36:47;14.68;;;11.05;;
71734;SDS011;59577;52.122;5.406;2023-09-12T01:39:13;16.33;;;11.43;;
71734;SDS011;59577;52.122;5.406;2023-09-12T01:41:40;14.73;;;11.00;;
71734;SDS011;59577;52.122;5.406;2023-09-12T01:44:12;13.60;;;10.38;;
71734;SDS011;59577;52.122;5.406;2023-09-12T01:46:40;13.85;;;9.35;;
71734;SDS011;59577;52.122;5.406;2023-09-12T01:49:08;11.40;;;8.68;;
71734;SDS011;59577;52.122;5.406;2023-09-12T01:51:37;10.00;;;8.53;;
71734;SDS011;59577;52.122;5.406;2023-09-12T01:54:04;13.95;;;9.70;;
71734;SDS011;59577;52.122;5.406;2023-09-12T01:56:33;18.75;;;9.70;;
71734;SDS011;59577;52.122;5.406;2023-09-12T01:59:00;16.55;;;10.77;;
71734;SDS011;59577;52.122;5.406;2023-09-12T02:01:28;71.97;;;12.57;;
71734;SDS011;59577;52.122;5.406;2023-09-12T02:03:55;28.03;;;11.80;;
71734;SDS011;59577;52.122;5.406;2023-09-12T02:06:21;13.20;;;10.68;;
71734;SDS011;59577;52.122;5.406;2023-09-12T02:08:48;14.23;;;10.32;;
71734;SDS011;59577;52.122;5.406;2023-09-12T02:11:15;24.23;;;11.63;;
71734;SDS011;59577;52.122;5.406;2023-09-12T02:13:41;17.67;;;11.40;;
71734;SDS011;59577;52.122;5.406;2023-09-12T02:16:08;15.37;;;10.77;;
71734;SDS011;59577;52.122;5.406;2023-09-12T02:18:35;18.73;;;10.95;;
71734;SDS011;59577;52.122;5.406;2023-09-12T02:21:02;15.48;;;10.95;;
71734;SDS011;59577;52.122;5.406;2023-09-12T02:23:28;12.68;;;9.63;;
71734;SDS011;59577;52.122;5.406;2023-09-12T02:25:55;13.38;;;9.50;;
71734;SDS011;59577;52.122;5.406;2023-09-12T02:28:22;17.03;;;10.07;;
71734;SDS011;59577;52.122;5.406;2023-09-12T02:30:49;19.80;;;10.68;;
71734;SDS011;59577;52.122;5.406;2023-09-12T02:33:15;20.30;;;10.35;;
71734;SDS011;59577;52.122;5.406;2023-09-12T02:35:42;19.15;;;11.77;;
71734;SDS011;59577;52.122;5.406;2023-09-12T02:38:08;26.60;;;10.68;;
71734;SDS011;59577;52.122;5.406;2023-09-12T02:40:35;18.50;;;10.30;;
71734;SDS011;59577;52.122;5.406;2023-09-12T02:43:01;22.38;;;12.18;;
71734;SDS011;59577;52.122;5.406;2023-09-12T02:45:28;13.73;;;9.73;;
71734;SDS011;59577;52.122;5.406;2023-09-12T02:47:55;21.30;;;10.65;;
71734;SDS011;59577;52.122;5.406;2023-09-12T02:50:21;14.18;;;11.15;;
71734;SDS011;59577;52.122;5.406;2023-09-12T02:52:48;14.13;;;10.10;;
71734;SDS011;59577;52.122;5.406;2023-09-12T02:55:15;13.48;;;9.75;;
71734;SDS011;59577;52.122;5.406;2023-09-12T02:57:41;19.60;;;11.68;;
71734;SDS011;59577;52.122;5.406;2023-09-12T03:00:08;12.63;;;9.63;;
71734;SDS011;59577;52.122;5.406;2023-09-12T03:02:35;11.55;;;8.98;;
71734;SDS011;59577;52.122;5.406;2023-09-12T03:05:02;12.97;;;9.43;;
71734;SDS011;59577;52.122;5.406;2023-09-12T03:07:29;13.82;;;9.48;;
71734;SDS011;59577;52.122;5.406;2023-09-12T03:09:56;18.02;;;9.98;;
71734;SDS011;59577;52.122;5.406;2023-09-12T03:12:22;13.02;;;9.85;;
71734;SDS011;59577;52.122;5.406;2023-09-12T03:14:49;14.18;;;9.45;;
71734;SDS011;59577;52.122;5.406;2023-09-12T03:17:16;13.57;;;9.77;;
71734;SDS011;59577;52.122;5.406;2023-09-12T03:19:42;19.92;;;10.32;;
71734;SDS011;59577;52.122;5.406;2023-09-12T03:22:09;17.60;;;9.85;;
71734;SDS011;59577;52.122;5.406;2023-09-12T03:24:36;15.27;;;9.68;;
71734;SDS011;59577;52.122;5.406;2023-09-12T03:27:02;12.98;;;9.95;;
71734;SDS011;59577;52.122;5.406;2023-09-12T03:29:30;14.67;;;9.67;;
71734;SDS011;59577;52.122;5.406;2023-09-12T03:31:57;14.48;;;10.10;;
71734;SDS011;59577;52.122;5.406;2023-09-12T03:34:24;11.45;;;8.93;;
71734;SDS011;59577;52.122;5.406;2023-09-12T03:36:50;13.63;;;9.07;;
71734;SDS011;59577;52.122;5.406;2023-09-12T03:39:17;10.82;;;9.07;;
71734;SDS011;59577;52.122;5.406;2023-09-12T03:41:44;12.33;;;8.80;;
71734;SDS011;59577;52.122;5.406;2023-09-12T03:44:10;11.52;;;8.68;;
71734;SDS011;59577;52.122;5.406;2023-09-12T03:46:37;12.60;;;8.70;;
71734;SDS011;59577;52.122;5.406;2023-09-12T03:49:04;10.57;;;8.35;;
71734;SDS011;59577;52.122;5.406;2023-09-12T03:51:30;12.30;;;9.10;;
71734;SDS011;59577;52.122;5.406;2023-09-12T03:53:57;11.00;;;8.80;;
71734;SDS011;59577;52.122;5.406;2023-09-12T03:56:23;10.82;;;8.40;;
71734;SDS011;59577;52.122;5.406;2023-09-12T03:58:50;11.07;;;9.13;;
71734;SDS011;59577;52.122;5.406;2023-09-12T04:01:16;9.18;;;8.18;;
71734;SDS011;59577;52.122;5.406;2023-09-12T04:03:43;12.07;;;8.45;;
71734;SDS011;59577;52.122;5.406;2023-09-12T04:06:11;11.60;;;8.00;;
71734;SDS011;59577;52.122;5.406;2023-09-12T04:08:37;14.10;;;9.27;;
71734;SDS011;59577;52.122;5.406;2023-09-12T04:11:04;10.10;;;8.07;;
71734;SDS011;59577;52.122;5.406;2023-09-12T04:13:31;12.10;;;9.00;;
71734;SDS011;59577;52.122;5.406;2023-09-12T04:15:57;13.95;;;9.70;;
71734;SDS011;59577;52.122;5.406;2023-09-12T04:18:24;10.23;;;8.10;;
71734;SDS011;59577;52.122;5.406;2023-09-12T04:20:51;13.75;;;8.77;;
71734;SDS011;59577;52.122;5.406;2023-09-12T04:23:17;13.38;;;8.98;;
71734;SDS011;59577;52.122;5.406;2023-09-12T04:25:45;12.73;;;8.50;;
71734;SDS011;59577;52.122;5.406;2023-09-12T04:28:12;10.90;;;8.60;;
71734;SDS011;59577;52.122;5.406;2023-09-12T04:30:39;10.83;;;7.47;;
71734;SDS011;59577;52.122;5.406;2023-09-12T04:33:08;11.50;;;8.40;;
71734;SDS011;59577;52.122;5.406;2023-09-12T04:35:35;12.55;;;9.40;;
71734;SDS011;59577;52.122;5.406;2023-09-12T04:38:01;12.88;;;8.60;;
71734;SDS011;59577;52.122;5.406;2023-09-12T04:40:29;14.15;;;9.82;;
71734;SDS011;59577;52.122;5.406;2023-09-12T04:42:56;13.23;;;9.73;;
71734;SDS011;59577;52.122;5.406;2023-09-12T04:45:22;20.45;;;11.88;;
71734;SDS011;59577;52.122;5.406;2023-09-12T04:47:49;17.15;;;10.02;;
71734;SDS011;59577;52.122;5.406;2023-09-12T04:50:16;25.77;;;9.85;;
71734;SDS011;59577;52.122;5.406;2023-09-12T04:52:42;24.20;;;11.20;;
71734;SDS011;59577;52.122;5.406;2023-09-12T04:55:09;27.73;;;11.37;;
71734;SDS011;59577;52.122;5.406;2023-09-12T04:57:35;24.48;;;10.82;;
71734;SDS011;59577;52.122;5.406;2023-09-12T05:00:04;17.42;;;9.75;;
71734;SDS011;59577;52.122;5.406;2023-09-12T05:02:31;20.95;;;11.20;;
71734;SDS011;59577;52.122;5.406;2023-09-12T05:04:58;15.13;;;9.85;;
71734;SDS011;59577;52.122;5.406;2023-09-12T05:07:25;11.73;;;8.67;;
71734;SDS011;59577;52.122;5.406;2023-09-12T05:09:51;13.02;;;8.75;;
71734;SDS011;59577;52.122;5.406;2023-09-12T05:12:17;12.88;;;8.70;;
71734;SDS011;59577;52.122;5.406;2023-09-12T05:14:44;12.13;;;8.70;;
71734;SDS011;59577;52.122;5.406;2023-09-12T05:17:11;15.40;;;10.88;;
71734;SDS011;59577;52.122;5.406;2023-09-12T05:19:37;18.60;;;10.17;;
71734;SDS011;59577;52.122;5.406;2023-09-12T05:22:04;16.48;;;10.20;;
71734;SDS011;59577;52.122;5.406;2023-09-12T05:24:30;14.32;;;9.50;;
71734;SDS011;59577;52.122;5.406;2023-09-12T05:26:57;15.70;;;9.18;;
71734;SDS011;59577;52.122;5.406;2023-09-12T05:29:24;15.27;;;10.07;;
71734;SDS011;59577;52.122;5.406;2023-09-12T05:31:50;13.73;;;9.53;;
71734;SDS011;59577;52.122;5.406;2023-09-12T05:34:17;14.55;;;9.85;;
71734;SDS011;59577;52.122;5.406;2023-09-12T05:36:44;14.35;;;9.05;;
71734;SDS011;59577;52.122;5.406;2023-09-12T05:39:11;12.27;;;7.80;;
71734;SDS011;59577;52.122;5.406;2023-09-12T05:41:40;13.25;;;8.63;;
71734;SDS011;59577;52.122;5.406;2023-09-12T05:44:06;12.03;;;9.20;;
71734;SDS011;59577;52.122;5.406;2023-09-12T05:46:33;15.85;;;9.77;;
71734;SDS011;59577;52.122;5.406;2023-09-12T05:49:00;15.63;;;9.55;;
71734;SDS011;59577;52.122;5.406;2023-09-12T05:51:26;14.40;;;9.65;;
71734;SDS011;59577;52.122;5.406;2023-09-12T05:53:53;15.52;;;8.88;;
71734;SDS011;59577;52.122;5.406;2023-09-12T05:56:19;12.03;;;8.23;;
71734;SDS011;59577;52.122;5.406;2023-09-12T05:58:47;11.82;;;8.52;;
71734;SDS011;59577;52.122;5.406;2023-09-12T06:01:16;14.68;;;9.48;;
71734;SDS011;59577;52.122;5.406;2023-09-12T06:03:42;15.55;;;9.90;;
71734;SDS011;59577;52.122;5.406;2023-09-12T06:06:09;16.80;;;10.50;;
71734;SDS011;59577;52.122;5.406;2023-09-12T06:08:36;15.67;;;9.63;;
71734;SDS011;59577;52.122;5.406;2023-09-12T06:11:03;18.77;;;10.85;;
71734;SDS011;59577;52.122;5.406;2023-09-12T06:13:30;16.60;;;10.85;;
71734;SDS011;59577;52.122;5.406;2023-09-12T06:15:59;20.55;;;12.15;;
71734;SDS011;59577;52.122;5.406;2023-09-12T06:18:26;19.88;;;12.20;;
71734;SDS011;59577;52.122;5.406;2023-09-12T06:20:55;21.23;;;12.90;;
71734;SDS011;59577;52.122;5.406;2023-09-12T06:23:21;25.08;;;13.20;;
71734;SDS011;59577;52.122;5.406;2023-09-12T06:25:50;20.65;;;12.00;;
71734;SDS011;59577;52.122;5.406;2023-09-12T06:28:24;24.40;;;13.35;;
71734;SDS011;59577;52.122;5.406;2023-09-12T06:30:54;20.27;;;11.50;;
71734;SDS011;59577;52.122;5.406;2023-09-12T06:33:21;21.33;;;12.43;;
71734;SDS011;59577;52.122;5.406;2023-09-12T06:35:48;21.50;;;12.82;;
71734;SDS011;59577;52.122;5.406;2023-09-12T06:39:05;19.58;;;11.48;;
71734;SDS011;59577;52.122;5.406;2023-09-12T06:41:32;19.92;;;12.27;;
71734;SDS011;59577;52.122;5.406;2023-09-12T06:43:59;24.48;;;14.07;;
71734;SDS011;59577;52.122;5.406;2023-09-12T06:46:26;21.77;;;12.33;;
71734;SDS011;59577;52.122;5.406;2023-09-12T06:48:53;22.17;;;12.40;;
71734;SDS011;59577;52.122;5.406;2023-09-12T06:51:23;27.90;;;14.77;;
71734;SDS011;59577;52.122;5.406;2023-09-12T06:54:00;27.27;;;14.07;;
71734;SDS011;59577;52.122;5.406;2023-09-12T06:56:26;31.42;;;17.02;;
71734;SDS011;59577;52.122;5.406;2023-09-12T06:59:13;29.83;;;16.67;;
71734;SDS011;59577;52.122;5.406;2023-09-12T08:18:15;18.98;;;12.95;;
71734;SDS011;59577;52.122;5.406;2023-09-12T08:32:35;22.20;;;15.27;;
71734;SDS011;59577;52.122;5.406;2023-09-12T08:37:37;21.90;;;14.95;;
71734;SDS011;59577;52.122;5.406;2023-09-12T08:40:07;23.88;;;15.63;;
71734;SDS011;59577;52.122;5.406;2023-09-12T08:42:41;19.77;;;14.30;;
71734;SDS011;59577;52.122;5.406;2023-09-12T08:45:11;21.23;;;14.13;;
71734;SDS011;59577;52.122;5.406;2023-09-12T08:47:49;23.50;;;15.10;;
71734;SDS011;59577;52.122;5.406;2023-09-12T08:50:18;21.27;;;15.13;;
71734;SDS011;59577;52.122;5.406;2023-09-12T08:52:47;21.95;;;14.27;;
71734;SDS011;59577;52.122;5.406;2023-09-12T08:55:32;21.27;;;14.20;;
71734;SDS011;59577;52.122;5.406;2023-09-12T08:58:03;19.27;;;14.48;;
71734;SDS011;59577;52.122;5.406;2023-09-12T09:00:31;19.48;;;14.48;;
71734;SDS011;59577;52.122;5.406;2023-09-12T09:02:58;25.00;;;16.95;;
71734;SDS011;59577;52.122;5.406;2023-09-12T09:05:27;22.83;;;14.98;;
71734;SDS011;59577;52.122;5.406;2023-09-12T09:07:54;19.77;;;14.47;;
71734;SDS011;59577;52.122;5.406;2023-09-12T09:10:22;22.95;;;15.48;;
71734;SDS011;59577;52.122;5.406;2023-09-12T09:13:07;24.15;;;15.57;;
71734;SDS011;59577;52.122;5.406;2023-09-12T09:15:36;18.75;;;13.65;;
71734;SDS011;59577;52.122;5.406;2023-09-12T09:18:08;20.80;;;13.85;;
71734;SDS011;59577;52.122;5.406;2023-09-12T09:20:37;20.67;;;15.07;;
71734;SDS011;59577;52.122;5.406;2023-09-12T09:23:06;24.15;;;15.70;;
71734;SDS011;59577;52.122;5.406;2023-09-12T09:25:41;21.70;;;15.77;;
71734;SDS011;59577;52.122;5.406;2023-09-12T09:28:19;22.85;;;15.68;;
71734;SDS011;59577;52.122;5.406;2023-09-12T09:30:48;20.90;;;16.48;;
71734;SDS011;59577;52.122;5.406;2023-09-12T09:33:21;16.93;;;14.17;;
71734;SDS011;59577;52.122;5.406;2023-09-12T09:35:49;20.77;;;15.70;;
71734;SDS011;59577;52.122;5.406;2023-09-12T09:38:18;22.85;;;16.83;;
71734;SDS011;59577;52.122;5.406;2023-09-12T09:40:46;24.90;;;17.67;;
71734;SDS011;59577;52.122;5.406;2023-09-12T09:43:19;22.30;;;16.95;;
71734;SDS011;59577;52.122;5.406;2023-09-12T09:45:47;26.57;;;17.57;;
71734;SDS011;59577;52.122;5.406;2023-09-12T09:48:21;23.92;;;17.67;;
71734;SDS011;59577;52.122;5.406;2023-09-12T09:50:49;27.13;;;19.23;;
71734;SDS011;59577;52.122;5.406;2023-09-12T09:53:28;23.27;;;17.30;;
71734;SDS011;59577;52.122;5.406;2023-09-12T09:56:12;22.23;;;16.58;;
71734;SDS011;59577;52.122;5.406;2023-09-12T09:58:45;25.63;;;16.67;;
71734;SDS011;59577;52.122;5.406;2023-09-12T10:01:12;25.00;;;16.67;;
71734;SDS011;59577;52.122;5.406;2023-09-12T10:03:43;23.40;;;15.85;;
71734;SDS011;59577;52.122;5.406;2023-09-12T10:06:12;25.27;;;18.83;;
71734;SDS011;59577;52.122;5.406;2023-09-12T10:08:41;26.80;;;16.80;;
71734;SDS011;59577;52.122;5.406;2023-09-12T10:11:12;26.17;;;17.53;;
71734;SDS011;59577;52.122;5.406;2023-09-12T10:14:03;24.98;;;16.58;;
71734;SDS011;59577;52.122;5.406;2023-09-12T10:16:32;26.35;;;17.83;;
71734;SDS011;59577;52.122;5.406;2023-09-12T10:24:45;26.90;;;15.67;;
71734;SDS011;59577;52.122;5.406;2023-09-12T10:27:14;25.00;;;16.05;;
71734;SDS011;59577;52.122;5.406;2023-09-12T10:29:42;24.10;;;16.88;;
71734;SDS011;59577;52.122;5.406;2023-09-12T10:32:14;22.83;;;15.40;;
71734;SDS011;59577;52.122;5.406;2023-09-12T10:34:41;20.73;;;14.68;;
71734;SDS011;59577;52.122;5.406;2023-09-12T10:37:11;22.63;;;15.00;;
71734;SDS011;59577;52.122;5.406;2023-09-12T10:39:42;24.88;;;15.85;;
71734;SDS011;59577;52.122;5.406;2023-09-12T10:42:09;23.98;;;17.20;;
71734;SDS011;59577;52.122;5.406;2023-09-12T10:44:38;28.00;;;16.00;;
71734;SDS011;59577;52.122;5.406;2023-09-12T10:47:05;26.45;;;17.80;;
71734;SDS011;59577;52.122;5.406;2023-09-12T10:49:33;24.30;;;15.20;;
71734;SDS011;59577;52.122;5.406;2023-09-12T10:52:00;22.38;;;14.40;;
71734;SDS011;59577;52.122;5.406;2023-09-12T10:54:39;21.83;;;14.43;;
71734;SDS011;59577;52.122;5.406;2023-09-12T10:57:10;18.83;;;13.20;;
71734;SDS011;59577;52.122;5.406;2023-09-12T11:05:03;20.13;;;13.60;;
71734;SDS011;59577;52.122;5.406;2023-09-12T11:12:41;21.17;;;14.07;;
71734;SDS011;59577;52.122;5.406;2023-09-12T11:15:09;19.93;;;13.27;;
71734;SDS011;59577;52.122;5.406;2023-09-12T11:17:47;19.20;;;12.77;;
71734;SDS011;59577;52.122;5.406;2023-09-12T11:20:15;18.88;;;12.80;;
71734;SDS011;59577;52.122;5.406;2023-09-12T11:22:46;17.63;;;12.15;;
71734;SDS011;59577;52.122;5.406;2023-09-12T11:25:21;18.05;;;12.60;;
71734;SDS011;59577;52.122;5.406;2023-09-12T11:30:19;21.48;;;12.68;;
71734;SDS011;59577;52.122;5.406;2023-09-12T11:32:49;14.75;;;10.60;;
71734;SDS011;59577;52.122;5.406;2023-09-12T11:35:21;15.10;;;10.70;;
71734;SDS011;59577;52.122;5.406;2023-09-12T11:37:50;16.08;;;10.68;;
71734;SDS011;59577;52.122;5.406;2023-09-12T11:41:04;13.63;;;10.53;;
71734;SDS011;59577;52.122;5.406;2023-09-12T11:43:24;16.52;;;11.48;;
71734;SDS011;59577;52.122;5.406;2023-09-12T11:45:54;22.13;;;15.00;;
71734;SDS011;59577;52.122;5.406;2023-09-12T11:48:21;19.15;;;13.25;;
71734;SDS011;59577;52.122;5.406;2023-09-12T11:53:26;15.83;;;10.73;;
71734;SDS011;59577;52.122;5.406;2023-09-12T11:55:57;16.00;;;11.07;;
71734;SDS011;59577;52.122;5.406;2023-09-12T11:58:25;16.98;;;13.38;;
71734;SDS011;59577;52.122;5.406;2023-09-12T12:00:54;17.95;;;10.98;;
71734;SDS011;59577;52.122;5.406;2023-09-12T12:03:23;16.80;;;12.07;;
71734;SDS011;59577;52.122;5.406;2023-09-12T12:05:51;14.03;;;11.10;;
71734;SDS011;59577;52.122;5.406;2023-09-12T12:08:19;17.40;;;11.70;;
71734;SDS011;59577;52.122;5.406;2023-09-12T12:10:57;19.75;;;12.20;;
71734;SDS011;59577;52.122;5.406;2023-09-12T12:13:25;15.32;;;11.50;;
71734;SDS011;59577;52.122;5.406;2023-09-12T12:15:55;15.43;;;12.18;;
71734;SDS011;59577;52.122;5.406;2023-09-12T12:18:23;12.27;;;9.80;;
71734;SDS011;59577;52.122;5.406;2023-09-12T12:20:50;14.70;;;10.65;;
71734;SDS011;59577;52.122;5.406;2023-09-12T12:23:16;13.88;;;11.20;;
71734;SDS011;59577;52.122;5.406;2023-09-12T12:25:43;12.23;;;10.40;;
71734;SDS011;59577;52.122;5.406;2023-09-12T12:28:09;13.98;;;9.18;;
71734;SDS011;59577;52.122;5.406;2023-09-12T12:30:36;10.87;;;7.03;;
71734;SDS011;59577;52.122;5.406;2023-09-12T12:33:07;13.32;;;8.75;;
71734;SDS011;59577;52.122;5.406;2023-09-12T12:36:05;13.38;;;7.53;;
71734;SDS011;59577;52.122;5.406;2023-09-12T12:38:35;10.70;;;7.35;;
71734;SDS011;59577;52.122;5.406;2023-09-12T12:41:10;8.75;;;6.72;;
71734;SDS011;59577;52.122;5.406;2023-09-12T12:43:39;13.37;;;7.77;;
71734;SDS011;59577;52.122;5.406;2023-09-12T12:46:11;9.50;;;7.57;;
71734;SDS011;59577;52.122;5.406;2023-09-12T12:48:41;15.30;;;9.10;;
71734;SDS011;59577;52.122;5.406;2023-09-12T12:51:19;9.77;;;8.00;;
71734;SDS011;59577;52.122;5.406;2023-09-12T12:53:52;7.57;;;6.82;;
71734;SDS011;59577;52.122;5.406;2023-09-12T12:56:21;6.57;;;5.50;;
71734;SDS011;59577;52.122;5.406;2023-09-12T12:58:55;6.78;;;5.10;;
71734;SDS011;59577;52.122;5.406;2023-09-12T13:01:24;5.60;;;4.88;;
71734;SDS011;59577;52.122;5.406;2023-09-12T13:03:51;4.85;;;4.03;;
71734;SDS011;59577;52.122;5.406;2023-09-12T13:06:19;4.85;;;4.22;;
71734;SDS011;59577;52.122;5.406;2023-09-12T13:08:48;5.13;;;4.63;;
71734;SDS011;59577;52.122;5.406;2023-09-12T13:11:16;4.47;;;4.07;;
71734;SDS011;59577;52.122;5.406;2023-09-12T13:13:45;5.60;;;4.60;;
71734;SDS011;59577;52.122;5.406;2023-09-12T13:16:14;6.43;;;4.72;;
71734;SDS011;59577;52.122;5.406;2023-09-12T13:18:42;7.15;;;4.50;;
71734;SDS011;59577;52.122;5.406;2023-09-12T13:21:08;7.83;;;4.30;;
71734;SDS011;59577;52.122;5.406;2023-09-12T13:23:36;5.43;;;4.93;;
71734;SDS011;59577;52.122;5.406;2023-09-12T13:26:08;5.47;;;4.50;;
71734;SDS011;59577;52.122;5.406;2023-09-12T13:28:36;9.98;;;4.80;;
71734;SDS011;59577;52.122;5.406;2023-09-12T13:31:03;7.30;;;5.32;;
71734;SDS011;59577;52.122;5.406;2023-09-12T13:33:30;9.07;;;5.70;;
71734;SDS011;59577;52.122;5.406;2023-09-12T13:35:58;4.78;;;4.35;;
71734;SDS011;59577;52.122;5.406;2023-09-12T13:38:24;5.15;;;4.32;;
71734;SDS011;59577;52.122;5.406;2023-09-12T13:40:51;6.43;;;4.82;;
71734;SDS011;59577;52.122;5.406;2023-09-12T13:43:18;6.07;;;4.68;;
71734;SDS011;59577;52.122;5.406;2023-09-12T13:45:45;4.37;;;3.97;;
71734;SDS011;59577;52.122;5.406;2023-09-12T13:48:12;4.10;;;3.08;;
71734;SDS011;59577;52.122;5.406;2023-09-12T13:50:40;3.78;;;2.90;;
71734;SDS011;59577;52.122;5.406;2023-09-12T13:53:09;5.20;;;2.70;;
71734;SDS011;59577;52.122;5.406;2023-09-12T13:55:36;3.92;;;3.58;;
71734;SDS011;59577;52.122;5.406;2023-09-12T13:58:23;6.00;;;3.50;;
71734;SDS011;59577;52.122;5.406;2023-09-12T14:00:55;4.53;;;2.85;;
71734;SDS011;59577;52.122;5.406;2023-09-12T14:03:22;4.07;;;2.67;;
71734;SDS011;59577;52.122;5.406;2023-09-12T14:05:49;4.93;;;3.50;;
71734;SDS011;59577;52.122;5.406;2023-09-12T14:08:17;5.85;;;2.97;;
71734;SDS011;59577;52.122;5.406;2023-09-12T14:10:44;4.10;;;2.90;;
71734;SDS011;59577;52.122;5.406;2023-09-12T14:13:11;3.60;;;2.40;;
71734;SDS011;59577;52.122;5.406;2023-09-12T14:15:41;3.97;;;2.33;;
71734;SDS011;59577;52.122;5.406;2023-09-12T14:18:08;1.60;;;1.50;;
71734;SDS011;59577;52.122;5.406;2023-09-12T14:20:36;3.80;;;2.20;;
71734;SDS011;59577;52.122;5.406;2023-09-12T14:23:03;2.40;;;2.20;;
71734;SDS011;59577;52.122;5.406;2023-09-12T14:25:31;2.88;;;2.65;;
71734;SDS011;59577;52.122;5.406;2023-09-12T14:27:58;3.85;;;3.40;;
71734;SDS011;59577;52.122;5.406;2023-09-12T14:30:25;5.07;;;3.28;;
71734;SDS011;59577;52.122;5.406;2023-09-12T14:33:00;6.07;;;4.10;;
71734;SDS011;59577;52.122;5.406;2023-09-12T14:35:28;6.40;;;4.03;;
71734;SDS011;59577;52.122;5.406;2023-09-12T14:37:55;6.32;;;3.80;;
71734;SDS011;59577;52.122;5.406;2023-09-12T14:40:23;4.28;;;3.85;;
71734;SDS011;59577;52.122;5.406;2023-09-12T14:42:50;5.78;;;4.47;;
71734;SDS011;59577;52.122;5.406;2023-09-12T14:45:17;4.85;;;4.35;;
71734;SDS011;59577;52.122;5.406;2023-09-12T14:47:43;5.23;;;4.67;;
71734;SDS011;59577;52.122;5.406;2023-09-12T14:50:10;8.07;;;4.50;;
71734;SDS011;59577;52.122;5.406;2023-09-12T14:52:37;5.45;;;4.95;;
71734;SDS011;59577;52.122;5.406;2023-09-12T14:55:06;6.07;;;4.03;;
71734;SDS011;59577;52.122;5.406;2023-09-12T14:57:41;7.30;;;5.90;;
71734;SDS011;59577;52.122;5.406;2023-09-12T15:00:08;9.40;;;5.70;;
71734;SDS011;59577;52.122;5.406;2023-09-12T15:02:37;7.38;;;4.60;;
71734;SDS011;59577;52.122;5.406;2023-09-12T15:05:04;6.85;;;4.95;;
71734;SDS011;59577;52.122;5.406;2023-09-12T15:07:31;6.38;;;4.00;;
71734;SDS011;59577;52.122;5.406;2023-09-12T15:09:58;5.63;;;4.93;;
71734;SDS011;59577;52.122;5.406;2023-09-12T15:12:25;8.03;;;4.87;;
71734;SDS011;59577;52.122;5.406;2023-09-12T15:14:52;8.63;;;5.18;;
71734;SDS011;59577;52.122;5.406;2023-09-12T15:17:19;5.00;;;3.83;;
71734;SDS011;59577;52.122;5.406;2023-09-12T15:19:45;9.95;;;5.03;;
71734;SDS011;59577;52.122;5.406;2023-09-12T15:22:12;6.55;;;4.35;;
71734;SDS011;59577;52.122;5.406;2023-09-12T15:24:40;6.37;;;4.43;;
71734;SDS011;59577;52.122;5.406;2023-09-12T15:27:07;8.00;;;4.25;;
71734;SDS011;59577;52.122;5.406;2023-09-12T15:29:33;5.22;;;4.10;;
71734;SDS011;59577;52.122;5.406;2023-09-12T15:32:00;8.55;;;5.03;;
71734;SDS011;59577;52.122;5.406;2023-09-12T15:34:27;5.25;;;3.97;;
71734;SDS011;59577;52.122;5.406;2023-09-12T15:37:12;5.77;;;3.63;;
71734;SDS011;59577;52.122;5.406;2023-09-12T15:39:43;5.25;;;4.18;;
71734;SDS011;59577;52.122;5.406;2023-09-12T15:42:09;3.83;;;3.38;;
71734;SDS011;59577;52.122;5.406;2023-09-12T15:44:52;4.32;;;3.38;;
71734;SDS011;59577;52.122;5.406;2023-09-12T15:47:28;5.30;;;3.65;;
71734;SDS011;59577;52.122;5.406;2023-09-12T15:49:54;4.43;;;3.13;;
71734;SDS011;59577;52.122;5.406;2023-09-12T15:52:21;4.13;;;2.97;;
71734;SDS011;59577;52.122;5.406;2023-09-12T15:54:48;4.43;;;3.50;;
71734;SDS011;59577;52.122;5.406;2023-09-12T15:57:15;4.93;;;3.10;;
71734;SDS011;59577;52.122;5.406;2023-09-12T15:59:41;5.10;;;2.78;;
71734;SDS011;59577;52.122;5.406;2023-09-12T16:02:08;3.17;;;2.40;;
71734;SDS011;59577;52.122;5.406;2023-09-12T16:04:34;4.13;;;2.42;;
71734;SDS011;59577;52.122;5.406;2023-09-12T16:07:01;2.95;;;2.28;;
71734;SDS011;59577;52.122;5.406;2023-09-12T16:09:28;3.75;;;2.30;;
71734;SDS011;59577;52.122;5.406;2023-09-12T16:11:54;3.40;;;2.03;;
71734;SDS011;59577;52.122;5.406;2023-09-12T16:14:21;3.83;;;2.00;;
71734;SDS011;59577;52.122;5.406;2023-09-12T16:16:47;2.85;;;2.05;;
71734;SDS011;59577;52.122;5.406;2023-09-12T16:19:14;2.78;;;1.98;;
71734;SDS011;59577;52.122;5.406;2023-09-12T16:21:42;3.88;;;2.13;;
71734;SDS011;59577;52.122;5.406;2023-09-12T16:24:09;2.35;;;2.15;;
71734;SDS011;59577;52.122;5.406;2023-09-12T16:26:36;2.73;;;2.20;;
71734;SDS011;59577;52.122;5.406;2023-09-12T16:29:03;2.92;;;2.60;;
71734;SDS011;59577;52.122;5.406;2023-09-12T16:31:29;3.72;;;2.60;;
71734;SDS011;59577;52.122;5.406;2023-09-12T16:33:56;3.10;;;2.58;;
71734;SDS011;59577;52.122;5.406;2023-09-12T16:36:23;5.10;;;2.63;;
71734;SDS011;59577;52.122;5.406;2023-09-12T16:38:50;4.07;;;3.13;;